Time;durP1;ratioP1;P1;durP2;ratioP2;P2;SDS_P1;SDS_P2;PMS_P1;PMS_P2;Temp;Humidity;BMP_temperature;BMP_pressure;BME280_temperature;BME280_humidity;BME280_pressure;Samples;Min_cycle;Max_cycle;Signal;HPM_P1;HPM_P2
2021/10/14 00:00:52;;;;;;;6.80;6.30;;;;;;;;;;5086844;28;24448;-60
2021/10/14 00:03:17;;;;;;;6.80;6.30;;;;;;;;;;5080020;28;24419;-60
2021/10/14 00:05:42;;;;;;;6.43;5.93;;;;;;;;;;5083507;28;24505;-60
2021/10/14 00:08:07;;;;;;;7.57;6.97;;;;;;;;;;5087929;28;24592;-59
2021/10/14 00:10:32;;;;;;;6.90;6.40;;;;;;;;;;5077271;28;24475;-59
2021/10/14 00:12:58;;;;;;;6.57;6.07;;;;;;;;;;5082688;28;24469;-60
2021/10/14 00:15:24;;;;;;;6.80;6.30;;;;;;;;;;5080406;28;24963;-59
2021/10/14 00:17:49;;;;;;;6.47;5.97;;;;;;;;;;5080720;28;24410;-59
2021/10/14 00:20:14;;;;;;;6.40;6.00;;;;;;;;;;5078474;28;24843;-60
2021/10/14 00:22:39;;;;;;;6.67;6.17;;;;;;;;;;5081533;28;24658;-59
2021/10/14 00:25:05;;;;;;;7.67;7.07;;;;;;;;;;5076640;28;24968;-60
2021/10/14 00:27:30;;;;;;;6.28;5.88;;;;;;;;;;5081038;28;24406;-60
2021/10/14 00:29:55;;;;;;;7.00;6.50;;;;;;;;;;5077371;28;25048;-59
2021/10/14 00:32:20;;;;;;;6.70;6.17;;;;;;;;;;5082853;28;24418;-60
2021/10/14 00:34:46;;;;;;;6.40;5.90;;;;;;;;;;5075716;28;24449;-59
2021/10/14 00:37:11;;;;;;;6.78;6.28;;;;;;;;;;5083238;28;24418;-59
2021/10/14 00:39:36;;;;;;;7.10;6.60;;;;;;;;;;5067325;28;24514;-59
2021/10/14 00:42:01;;;;;;;7.00;6.50;;;;;;;;;;5075950;28;24785;-59
2021/10/14 00:44:26;;;;;;;7.30;6.80;;;;;;;;;;5079757;28;24426;-59
2021/10/14 00:46:52;;;;;;;6.78;6.28;;;;;;;;;;5069316;28;24770;-59
2021/10/14 00:49:17;;;;;;;7.40;6.80;;;;;;;;;;5069319;28;24967;-60
2021/10/14 00:51:43;;;;;;;7.57;6.97;;;;;;;;;;5077552;28;24797;-59
2021/10/14 00:54:08;;;;;;;7.30;6.70;;;;;;;;;;5076012;28;24850;-59
2021/10/14 00:56:33;;;;;;;6.50;6.00;;;;;;;;;;5078274;28;24565;-59
2021/10/14 00:59:01;;;;;;;6.77;6.27;;;;;;;;;;5078841;28;24513;-59
2021/10/14 01:01:26;;;;;;;7.15;6.55;;;;;;;;;;5074227;28;24423;-58
2021/10/14 01:03:52;;;;;;;6.70;6.20;;;;;;;;;;5079701;28;24444;-59
2021/10/14 01:06:17;;;;;;;6.80;6.30;;;;;;;;;;5072427;28;24824;-59
2021/10/14 01:08:42;;;;;;;6.90;6.40;;;;;;;;;;5083990;28;24881;-59
2021/10/14 01:11:09;;;;;;;7.10;6.60;;;;;;;;;;5077557;28;25294;-59
2021/10/14 01:13:34;;;;;;;7.35;6.85;;;;;;;;;;5074079;28;24472;-59
2021/10/14 01:16:02;;;;;;;6.90;6.30;;;;;;;;;;5069137;28;24454;-59
2021/10/14 01:18:27;;;;;;;7.00;6.50;;;;;;;;;;5083338;28;24415;-59
2021/10/14 01:20:53;;;;;;;7.38;6.68;;;;;;;;;;5071867;28;24421;-59
2021/10/14 01:23:18;;;;;;;6.00;5.60;;;;;;;;;;5072336;28;24442;-59
2021/10/14 01:25:46;;;;;;;6.80;6.20;;;;;;;;;;5085245;28;24476;-58
2021/10/14 01:28:11;;;;;;;7.40;6.80;;;;;;;;;;5088056;28;24777;-59
2021/10/14 01:30:37;;;;;;;7.10;6.53;;;;;;;;;;5074846;28;24441;-59
2021/10/14 01:33:02;;;;;;;7.00;6.50;;;;;;;;;;5087207;28;24781;-59
2021/10/14 01:35:27;;;;;;;7.17;6.67;;;;;;;;;;5083418;28;24497;-60
2021/10/14 01:37:52;;;;;;;6.50;6.00;;;;;;;;;;5082552;28;24411;-59
2021/10/14 01:40:17;;;;;;;7.00;6.40;;;;;;;;;;5090142;28;24407;-59
2021/10/14 01:42:42;;;;;;;6.68;6.18;;;;;;;;;;5085525;28;24895;-59
2021/10/14 01:45:08;;;;;;;6.83;6.30;;;;;;;;;;5094223;28;24483;-59
2021/10/14 01:47:33;;;;;;;6.90;6.30;;;;;;;;;;5081908;28;24418;-59
2021/10/14 01:49:59;;;;;;;7.20;6.60;;;;;;;;;;5073484;28;24446;-59
2021/10/14 01:52:24;;;;;;;6.70;6.20;;;;;;;;;;5071426;28;24487;-59
2021/10/14 01:54:49;;;;;;;6.75;6.25;;;;;;;;;;5088459;28;24860;-59
2021/10/14 01:57:14;;;;;;;7.50;6.90;;;;;;;;;;5086675;28;24421;-60
2021/10/14 01:59:40;;;;;;;7.00;6.40;;;;;;;;;;5074818;28;24468;-60
2021/10/14 02:02:05;;;;;;;6.97;6.43;;;;;;;;;;5071582;28;24472;-60
2021/10/14 02:04:30;;;;;;;6.30;5.80;;;;;;;;;;5076543;28;24418;-60
2021/10/14 02:06:55;;;;;;;6.35;5.85;;;;;;;;;;5072237;28;24521;-59
2021/10/14 02:09:20;;;;;;;6.82;6.32;;;;;;;;;;5073952;28;24423;-59
2021/10/14 02:11:45;;;;;;;7.40;6.80;;;;;;;;;;5081533;28;24785;-59
2021/10/14 02:14:11;;;;;;;7.20;6.70;;;;;;;;;;5086546;28;24448;-59
2021/10/14 02:16:36;;;;;;;7.00;6.50;;;;;;;;;;5084167;28;24932;-59
2021/10/14 02:19:01;;;;;;;6.80;6.30;;;;;;;;;;5069951;28;24439;-60
2021/10/14 02:21:26;;;;;;;6.07;5.67;;;;;;;;;;5077085;28;24449;-59
2021/10/14 02:23:51;;;;;;;7.22;6.63;;;;;;;;;;5077498;28;24483;-60
2021/10/14 02:26:16;;;;;;;7.60;7.03;;;;;;;;;;5084549;28;24472;-59
2021/10/14 02:28:42;;;;;;;7.50;6.90;;;;;;;;;;5083338;28;24417;-59
2021/10/14 02:31:07;;;;;;;6.80;6.20;;;;;;;;;;5088680;28;24441;-59
2021/10/14 02:33:32;;;;;;;6.80;6.30;;;;;;;;;;5082702;28;24441;-60
2021/10/14 02:35:57;;;;;;;7.10;6.60;;;;;;;;;;5082454;28;24422;-59
2021/10/14 02:38:22;;;;;;;7.15;6.65;;;;;;;;;;5082341;28;24414;-60
2021/10/14 02:40:47;;;;;;;5.70;5.30;;;;;;;;;;5085294;28;24406;-60
2021/10/14 02:43:12;;;;;;;7.85;7.25;;;;;;;;;;5083107;28;24416;-60
2021/10/14 02:45:38;;;;;;;6.82;6.32;;;;;;;;;;5088488;28;24476;-59
2021/10/14 02:48:03;;;;;;;6.80;6.30;;;;;;;;;;5081705;28;24768;-60
2021/10/14 02:50:28;;;;;;;7.00;6.50;;;;;;;;;;5078174;28;24498;-59
2021/10/14 02:52:53;;;;;;;7.80;7.20;;;;;;;;;;5082426;28;24763;-60
2021/10/14 02:55:18;;;;;;;6.78;6.28;;;;;;;;;;5075907;28;25086;-60
2021/10/14 02:57:43;;;;;;;7.80;7.20;;;;;;;;;;5084905;28;25024;-59
2021/10/14 03:00:09;;;;;;;7.60;7.00;;;;;;;;;;5088338;28;24402;-59
2021/10/14 03:02:34;;;;;;;7.10;6.60;;;;;;;;;;5085785;28;25000;-59
2021/10/14 03:04:59;;;;;;;8.10;7.50;;;;;;;;;;5080849;28;25003;-60
2021/10/14 03:07:24;;;;;;;7.57;6.97;;;;;;;;;;5082778;28;24430;-59
2021/10/14 03:09:49;;;;;;;7.27;6.67;;;;;;;;;;5073465;28;24429;-59
2021/10/14 03:12:14;;;;;;;7.10;6.60;;;;;;;;;;5080529;28;24430;-59
2021/10/14 03:14:40;;;;;;;7.32;6.72;;;;;;;;;;5076884;28;24491;-59
2021/10/14 03:17:05;;;;;;;6.93;6.43;;;;;;;;;;5084870;28;24976;-59
2021/10/14 03:19:30;;;;;;;6.87;6.27;;;;;;;;;;5074997;28;24407;-59
2021/10/14 03:21:55;;;;;;;6.97;6.38;;;;;;;;;;5080948;28;24448;-59
2021/10/14 03:24:20;;;;;;;7.40;6.90;;;;;;;;;;5082720;28;24897;-59
2021/10/14 03:26:45;;;;;;;6.80;6.30;;;;;;;;;;5073888;28;24421;-59
2021/10/14 03:29:10;;;;;;;7.35;6.75;;;;;;;;;;5075577;28;24476;-59
2021/10/14 03:31:36;;;;;;;7.03;6.53;;;;;;;;;;5080893;28;24951;-59
2021/10/14 03:34:01;;;;;;;7.50;6.90;;;;;;;;;;5082813;28;24772;-59
2021/10/14 03:36:26;;;;;;;7.80;7.20;;;;;;;;;;5080324;28;25136;-59
2021/10/14 03:38:51;;;;;;;7.13;6.53;;;;;;;;;;5068028;28;24466;-59
2021/10/14 03:41:16;;;;;;;7.10;6.50;;;;;;;;;;5078965;28;24418;-59
2021/10/14 03:43:41;;;;;;;8.07;7.47;;;;;;;;;;5079639;28;25208;-59
2021/10/14 03:46:07;;;;;;;8.60;7.90;;;;;;;;;;5085949;28;24453;-59
2021/10/14 03:48:32;;;;;;;7.80;7.20;;;;;;;;;;5068614;28;24415;-60
2021/10/14 03:50:57;;;;;;;8.40;7.70;;;;;;;;;;5078029;28;24492;-60
2021/10/14 03:53:22;;;;;;;7.10;6.60;;;;;;;;;;5081871;28;24520;-60
2021/10/14 03:55:47;;;;;;;8.07;7.37;;;;;;;;;;5078340;28;24971;-60
2021/10/14 03:58:12;;;;;;;7.80;7.10;;;;;;;;;;5079303;28;24993;-59
2021/10/14 04:00:38;;;;;;;7.03;6.50;;;;;;;;;;5079474;28;24407;-59
2021/10/14 04:03:03;;;;;;;7.50;6.90;;;;;;;;;;5079155;28;24453;-59
2021/10/14 04:05:28;;;;;;;7.07;6.57;;;;;;;;;;5082157;28;24422;-59
2021/10/14 04:07:53;;;;;;;7.70;7.10;;;;;;;;;;5084442;28;24852;-60
2021/10/14 04:10:19;;;;;;;6.70;6.20;;;;;;;;;;5075355;28;24964;-59
2021/10/14 04:12:44;;;;;;;7.63;7.03;;;;;;;;;;5075783;28;24414;-60
2021/10/14 04:15:09;;;;;;;7.28;6.68;;;;;;;;;;5076056;28;24425;-59
2021/10/14 04:17:34;;;;;;;7.07;6.57;;;;;;;;;;5079584;28;25035;-59
2021/10/14 04:20:00;;;;;;;7.90;7.30;;;;;;;;;;5078045;28;24413;-60
2021/10/14 04:22:27;;;;;;;7.32;6.78;;;;;;;;;;5091811;28;24421;-59
2021/10/14 04:24:52;;;;;;;7.07;6.57;;;;;;;;;;5077980;28;24797;-59
2021/10/14 04:27:17;;;;;;;8.57;7.78;;;;;;;;;;5079154;28;24968;-60
2021/10/14 04:29:42;;;;;;;8.02;7.43;;;;;;;;;;5068562;28;24468;-60
2021/10/14 04:32:08;;;;;;;7.30;6.80;;;;;;;;;;5070706;28;24418;-60
2021/10/14 04:34:33;;;;;;;7.45;6.85;;;;;;;;;;5076317;28;24452;-60
2021/10/14 04:36:59;;;;;;;8.50;7.80;;;;;;;;;;5076194;28;24952;-60
2021/10/14 04:39:24;;;;;;;7.80;7.20;;;;;;;;;;5091235;28;24417;-60
2021/10/14 04:41:50;;;;;;;8.02;7.32;;;;;;;;;;5065800;28;24422;-61
2021/10/14 04:44:15;;;;;;;8.20;7.60;;;;;;;;;;5072706;28;25025;-60
2021/10/14 04:46:40;;;;;;;7.83;7.13;;;;;;;;;;5072711;28;25100;-60
2021/10/14 04:49:05;;;;;;;7.80;7.20;;;;;;;;;;5078627;28;24603;-60
2021/10/14 04:51:30;;;;;;;7.30;6.70;;;;;;;;;;5082328;28;24511;-60
2021/10/14 04:53:56;;;;;;;8.60;7.80;;;;;;;;;;5071137;28;24971;-60
2021/10/14 04:56:21;;;;;;;8.40;7.80;;;;;;;;;;5075730;28;24423;-60
2021/10/14 04:58:46;;;;;;;8.88;8.18;;;;;;;;;;5072310;28;25164;-60
2021/10/14 05:01:11;;;;;;;8.03;7.40;;;;;;;;;;5072513;28;24457;-61
2021/10/14 05:03:36;;;;;;;8.00;7.30;;;;;;;;;;5069560;28;25025;-60
2021/10/14 05:06:01;;;;;;;8.07;7.37;;;;;;;;;;5066097;28;24447;-60
2021/10/14 05:08:26;;;;;;;8.10;7.40;;;;;;;;;;5069778;28;24418;-60
2021/10/14 05:10:52;;;;;;;7.90;7.30;;;;;;;;;;5072932;28;24844;-60
2021/10/14 05:13:17;;;;;;;8.30;7.60;;;;;;;;;;5073315;28;24564;-60
2021/10/14 05:15:42;;;;;;;8.60;7.80;;;;;;;;;;5067841;28;24557;-60
2021/10/14 05:18:08;;;;;;;8.48;7.78;;;;;;;;;;5078523;28;24415;-60
2021/10/14 05:20:33;;;;;;;8.50;7.90;;;;;;;;;;5071607;28;24411;-60
2021/10/14 05:22:58;;;;;;;8.10;7.30;;;;;;;;;;5070620;28;24901;-60
2021/10/14 05:25:23;;;;;;;9.38;8.68;;;;;;;;;;5074880;28;24506;-61
2021/10/14 05:27:49;;;;;;;8.30;7.60;;;;;;;;;;5064586;28;24433;-60
2021/10/14 05:30:14;;;;;;;8.32;7.68;;;;;;;;;;5073574;28;25110;-60
2021/10/14 05:32:40;;;;;;;9.87;9.00;;;;;;;;;;5077030;28;24425;-60
2021/10/14 05:35:05;;;;;;;8.20;7.50;;;;;;;;;;5079103;28;24996;-60
2021/10/14 05:37:30;;;;;;;8.63;7.93;;;;;;;;;;5080665;28;24926;-60
2021/10/14 05:39:56;;;;;;;8.82;8.07;;;;;;;;;;5078988;28;24412;-60
2021/10/14 05:42:21;;;;;;;8.67;7.97;;;;;;;;;;5072471;28;24543;-60
2021/10/14 05:44:46;;;;;;;9.77;8.97;;;;;;;;;;5062452;28;24965;-60
2021/10/14 05:47:11;;;;;;;9.50;8.80;;;;;;;;;;5056654;28;24405;-60
2021/10/14 05:49:36;;;;;;;9.20;8.40;;;;;;;;;;5056825;28;24851;-60
2021/10/14 05:52:02;;;;;;;9.53;8.83;;;;;;;;;;5061084;28;24480;-61
2021/10/14 05:54:31;;;;;;;8.63;7.93;;;;;;;;;;5061012;28;24957;-61
2021/10/14 05:56:58;;;;;;;8.70;8.00;;;;;;;;;;5074966;28;24414;-61
2021/10/14 05:59:23;;;;;;;9.10;8.20;;;;;;;;;;5067402;28;24521;-61
2021/10/14 06:01:48;;;;;;;8.70;8.00;;;;;;;;;;5065550;28;24510;-60
2021/10/14 06:04:14;;;;;;;7.70;7.10;;;;;;;;;;5066721;28;24514;-61
2021/10/14 06:06:40;;;;;;;8.07;7.38;;;;;;;;;;5070986;28;24502;-61
2021/10/14 06:09:05;;;;;;;10.30;9.50;;;;;;;;;;5087098;28;24964;-61
2021/10/14 06:11:30;;;;;;;9.18;8.48;;;;;;;;;;5089401;28;24689;-61
2021/10/14 06:13:55;;;;;;;7.90;7.30;;;;;;;;;;5068863;28;24422;-61
2021/10/14 06:16:21;;;;;;;8.80;8.10;;;;;;;;;;5067994;28;24460;-61
2021/10/14 06:18:46;;;;;;;9.30;8.50;;;;;;;;;;5078476;28;24520;-60
2021/10/14 06:21:11;;;;;;;8.57;7.87;;;;;;;;;;5105612;28;24829;-60
2021/10/14 06:23:38;;;;;;;10.55;9.65;;;;;;;;;;5097616;28;24983;-60
2021/10/14 06:26:03;;;;;;;9.75;8.85;;;;;;;;;;5077728;28;24403;-61
2021/10/14 06:28:28;;;;;;;9.27;8.48;;;;;;;;;;5066853;28;26486;-60
2021/10/14 06:30:53;;;;;;;10.40;9.37;;;;;;;;;;5075802;28;24533;-60
2021/10/14 06:33:19;;;;;;;10.23;9.32;;;;;;;;;;5078714;28;24518;-61
2021/10/14 06:35:44;;;;;;;11.10;10.05;;;;;;;;;;5083591;28;24442;-60
2021/10/14 06:38:09;;;;;;;11.25;10.00;;;;;;;;;;5065644;28;25021;-60
2021/10/14 06:40:34;;;;;;;10.77;9.80;;;;;;;;;;5068044;28;25026;-60
2021/10/14 06:42:59;;;;;;;10.73;9.73;;;;;;;;;;5079448;28;25037;-61
2021/10/14 06:45:25;;;;;;;10.27;9.37;;;;;;;;;;5082417;28;24390;-60
2021/10/14 06:47:50;;;;;;;10.27;9.47;;;;;;;;;;5081343;28;24926;-60
2021/10/14 06:50:15;;;;;;;10.70;9.80;;;;;;;;;;5085421;28;24393;-61
2021/10/14 06:52:40;;;;;;;11.50;10.50;;;;;;;;;;5081732;28;24776;-60
2021/10/14 06:55:06;;;;;;;11.00;10.00;;;;;;;;;;5078947;28;24475;-60
2021/10/14 06:57:31;;;;;;;10.80;9.90;;;;;;;;;;5081163;28;24501;-61
2021/10/14 06:59:56;;;;;;;11.20;10.20;;;;;;;;;;5083364;28;24370;-60
2021/10/14 07:02:21;;;;;;;10.57;9.68;;;;;;;;;;5084922;28;24431;-60
2021/10/14 07:04:46;;;;;;;11.00;10.10;;;;;;;;;;5083024;28;24442;-60
2021/10/14 07:07:11;;;;;;;10.88;9.98;;;;;;;;;;5067860;28;24933;-60
2021/10/14 07:09:37;;;;;;;10.77;9.77;;;;;;;;;;5059053;28;24399;-61
2021/10/14 07:12:10;;;;;;;10.15;9.25;;;;;;;;;;5062957;28;24967;-61
2021/10/14 07:14:35;;;;;;;10.80;9.90;;;;;;;;;;5066501;28;24414;-60
2021/10/14 07:17:00;;;;;;;11.30;10.30;;;;;;;;;;5082587;28;24435;-60
2021/10/14 07:19:25;;;;;;;9.30;8.50;;;;;;;;;;5100476;28;24492;-60
2021/10/14 07:21:51;;;;;;;8.90;8.20;;;;;;;;;;5104866;28;24409;-61
2021/10/14 07:24:17;;;;;;;8.65;7.95;;;;;;;;;;5100565;28;24390;-60
2021/10/14 07:26:42;;;;;;;9.00;8.30;;;;;;;;;;5081212;28;24518;-61
2021/10/14 07:29:07;;;;;;;10.10;9.30;;;;;;;;;;5082822;28;24901;-61
2021/10/14 07:31:32;;;;;;;9.60;8.80;;;;;;;;;;5084518;28;24978;-60
2021/10/14 07:33:58;;;;;;;8.57;7.88;;;;;;;;;;5082809;28;24435;-61
2021/10/14 07:36:23;;;;;;;9.30;8.50;;;;;;;;;;5079023;28;24765;-61
2021/10/14 07:38:49;;;;;;;10.67;9.77;;;;;;;;;;5080927;28;24542;-60
2021/10/14 07:41:14;;;;;;;9.10;8.40;;;;;;;;;;5080939;28;24461;-60
2021/10/14 07:43:39;;;;;;;7.90;7.30;;;;;;;;;;5079433;28;24504;-61
2021/10/14 07:46:07;;;;;;;9.60;8.70;;;;;;;;;;5082418;28;24506;-60
2021/10/14 07:48:33;;;;;;;8.88;8.15;;;;;;;;;;5077691;28;25187;-60
2021/10/14 07:50:58;;;;;;;9.20;8.40;;;;;;;;;;5072022;28;24475;-61
2021/10/14 07:53:24;;;;;;;8.57;7.88;;;;;;;;;;5080620;28;24422;-61
2021/10/14 07:55:49;;;;;;;10.77;9.77;;;;;;;;;;5080705;28;24402;-60
2021/10/14 07:58:14;;;;;;;9.90;9.00;;;;;;;;;;5080123;28;24749;-59
2021/10/14 08:00:39;;;;;;;8.70;8.00;;;;;;;;;;5083688;28;24451;-60
2021/10/14 08:03:05;;;;;;;8.80;8.10;;;;;;;;;;5082093;28;24750;-59
2021/10/14 08:05:30;;;;;;;8.07;7.40;;;;;;;;;;5084113;28;24498;-60
2021/10/14 08:07:55;;;;;;;8.10;7.50;;;;;;;;;;5080278;28;24426;-60
2021/10/14 08:10:21;;;;;;;8.10;7.40;;;;;;;;;;5078620;28;24433;-60
2021/10/14 08:12:46;;;;;;;7.80;7.20;;;;;;;;;;5080742;28;24819;-60
2021/10/14 08:15:11;;;;;;;8.30;7.60;;;;;;;;;;5082041;28;24398;-60
2021/10/14 08:17:36;;;;;;;8.20;7.50;;;;;;;;;;5094715;28;24422;-60
2021/10/14 08:20:02;;;;;;;7.07;6.45;;;;;;;;;;5095620;28;24414;-60
2021/10/14 08:22:28;;;;;;;7.13;6.53;;;;;;;;;;5078104;28;24978;-60
2021/10/14 08:24:55;;;;;;;6.27;5.87;;;;;;;;;;5078600;28;24414;-60
2021/10/14 08:27:21;;;;;;;6.13;5.63;;;;;;;;;;5081747;28;24386;-60
2021/10/14 08:29:46;;;;;;;7.63;7.03;;;;;;;;;;5082804;28;24425;-60
2021/10/14 08:32:11;;;;;;;7.37;6.87;;;;;;;;;;5069619;28;24426;-60
2021/10/14 08:34:36;;;;;;;7.32;6.72;;;;;;;;;;5063625;28;24493;-60
2021/10/14 08:37:01;;;;;;;8.30;7.60;;;;;;;;;;5061156;28;24410;-60
2021/10/14 08:39:27;;;;;;;7.80;7.10;;;;;;;;;;5057997;28;24476;-60
2021/10/14 08:41:53;;;;;;;8.15;7.45;;;;;;;;;;5072670;28;24494;-60
2021/10/14 08:44:28;;;;;;;7.50;6.80;;;;;;;;;;5081584;28;24436;-60
2021/10/14 08:46:54;;;;;;;7.50;6.90;;;;;;;;;;5081721;28;24447;-61
2021/10/14 08:49:20;;;;;;;6.63;6.07;;;;;;;;;;5083237;28;24405;-61
2021/10/14 08:51:45;;;;;;;7.20;6.60;;;;;;;;;;5081657;28;24491;-61
2021/10/14 08:54:10;;;;;;;6.80;6.20;;;;;;;;;;5078269;28;24609;-60
2021/10/14 08:56:40;;;;;;;6.43;5.93;;;;;;;;;;5078026;28;24460;-61
2021/10/14 08:59:05;;;;;;;5.88;5.38;;;;;;;;;;5079290;28;24433;-61
2021/10/14 09:01:30;;;;;;;5.50;5.10;;;;;;;;;;5082168;28;24480;-61
2021/10/14 09:03:56;;;;;;;5.63;5.23;;;;;;;;;;5080745;28;24505;-61
2021/10/14 09:06:21;;;;;;;6.28;5.78;;;;;;;;;;5083219;28;24924;-61
2021/10/14 09:08:50;;;;;;;3.70;3.40;;;;;;;;;;5079612;28;24395;-60
2021/10/14 09:11:16;;;;;;;3.70;3.40;;;;;;;;;;5077899;28;24463;-61
2021/10/14 09:14:02;;;;;;;4.60;4.20;;;;;;;;;;5077590;28;24487;-61
2021/10/14 09:16:30;;;;;;;4.82;4.43;;;;;;;;;;5095529;28;24394;-61
2021/10/14 09:18:56;;;;;;;3.75;3.53;;;;;;;;;;5089987;28;24459;-64
2021/10/14 09:21:22;;;;;;;3.45;3.15;;;;;;;;;;5059170;28;24469;-61
2021/10/14 09:23:47;;;;;;;3.40;3.20;;;;;;;;;;5059508;28;25004;-60
2021/10/14 09:26:12;;;;;;;3.10;2.80;;;;;;;;;;5057336;28;24497;-61
2021/10/14 09:28:37;;;;;;;2.40;2.20;;;;;;;;;;5065634;28;24425;-60
2021/10/14 09:31:04;;;;;;;2.50;2.30;;;;;;;;;;5081229;28;24417;-61
2021/10/14 09:33:29;;;;;;;2.60;2.40;;;;;;;;;;5082971;28;25049;-61
2021/10/14 09:35:54;;;;;;;2.20;2.10;;;;;;;;;;5080505;28;24394;-60
2021/10/14 09:38:29;;;;;;;1.80;1.70;;;;;;;;;;5078744;28;24375;-60
2021/10/14 09:40:59;;;;;;;2.30;2.20;;;;;;;;;;5075631;28;24840;-61
2021/10/14 09:43:25;;;;;;;2.15;2.05;;;;;;;;;;5086694;28;24386;-61
2021/10/14 09:45:51;;;;;;;2.10;2.00;;;;;;;;;;5087003;28;24390;-61
2021/10/14 09:48:16;;;;;;;2.57;2.37;;;;;;;;;;5084719;28;24745;-60
2021/10/14 09:50:42;;;;;;;2.70;2.50;;;;;;;;;;5083235;28;24948;-62
2021/10/14 09:53:11;;;;;;;2.80;2.60;;;;;;;;;;5081040;28;24471;-60
2021/10/14 09:55:36;;;;;;;2.60;2.40;;;;;;;;;;5080940;28;24977;-61
2021/10/14 09:58:02;;;;;;;2.50;2.30;;;;;;;;;;5086574;28;24410;-61
2021/10/14 10:00:28;;;;;;;2.77;2.57;;;;;;;;;;5081716;28;24410;-61
2021/10/14 10:02:54;;;;;;;2.70;2.50;;;;;;;;;;5064342;28;24390;-61
2021/10/14 10:05:19;;;;;;;2.80;2.60;;;;;;;;;;5060735;28;24418;-61
2021/10/14 10:07:46;;;;;;;3.50;3.30;;;;;;;;;;5061961;28;24515;-61
2021/10/14 10:10:14;;;;;;;3.20;3.00;;;;;;;;;;5063881;28;24395;-61
2021/10/14 10:12:39;;;;;;;2.60;2.40;;;;;;;;;;5085004;28;24462;-61
2021/10/14 10:15:05;;;;;;;3.30;3.10;;;;;;;;;;5096736;28;25028;-60
2021/10/14 10:17:37;;;;;;;4.30;4.00;;;;;;;;;;5102364;28;24393;-61
2021/10/14 10:20:03;;;;;;;3.00;2.80;;;;;;;;;;5100805;28;24417;-61
2021/10/14 10:22:31;;;;;;;4.10;3.80;;;;;;;;;;5089204;28;24448;-60
2021/10/14 10:24:56;;;;;;;5.00;4.60;;;;;;;;;;5084180;28;24398;-60
2021/10/14 10:27:31;;;;;;;3.53;3.33;;;;;;;;;;5085400;28;24406;-61
2021/10/14 10:29:59;;;;;;;4.13;3.83;;;;;;;;;;5083783;28;25041;-60
2021/10/14 10:32:25;;;;;;;3.63;3.40;;;;;;;;;;5080111;28;24843;-61
2021/10/14 10:34:54;;;;;;;2.70;2.50;;;;;;;;;;5082287;28;24394;-61
2021/10/14 10:37:26;;;;;;;4.57;4.18;;;;;;;;;;5080187;28;24429;-61
2021/10/14 10:39:56;;;;;;;3.50;3.20;;;;;;;;;;5083820;28;24456;-61
2021/10/14 10:42:28;;;;;;;3.73;3.43;;;;;;;;;;5083849;28;24492;-61
2021/10/14 10:44:54;;;;;;;3.20;3.00;;;;;;;;;;5083603;28;25039;-61
2021/10/14 10:47:36;;;;;;;3.00;2.80;;;;;;;;;;5079743;28;24481;-60
2021/10/14 10:50:02;;;;;;;2.88;2.67;;;;;;;;;;5080060;28;24452;-60
2021/10/14 10:52:37;;;;;;;2.40;2.30;;;;;;;;;;5072308;28;24426;-60
2021/10/14 10:55:11;;;;;;;3.53;3.33;;;;;;;;;;5085146;28;24406;-60
2021/10/14 10:57:46;;;;;;;3.45;3.25;;;;;;;;;;5085059;28;24825;-60
2021/10/14 11:00:12;;;;;;;3.65;3.35;;;;;;;;;;5083420;28;24374;-60
2021/10/14 11:02:37;;;;;;;3.80;3.50;;;;;;;;;;5077903;28;24545;-61
2021/10/14 11:05:03;;;;;;;3.43;3.23;;;;;;;;;;5080097;28;24402;-61
2021/10/14 11:07:28;;;;;;;3.70;3.50;;;;;;;;;;5083163;28;24394;-61
2021/10/14 11:09:53;;;;;;;3.05;2.85;;;;;;;;;;5083187;28;24395;-61
2021/10/14 11:12:18;;;;;;;2.90;2.70;;;;;;;;;;5085052;28;24526;-60
2021/10/14 11:14:43;;;;;;;2.47;2.28;;;;;;;;;;5083479;28;25087;-60
2021/10/14 11:17:09;;;;;;;2.33;2.20;;;;;;;;;;5081067;28;25025;-61
2021/10/14 11:19:38;;;;;;;2.30;2.20;;;;;;;;;;5078914;28;24405;-61
2021/10/14 11:22:12;;;;;;;2.35;2.25;;;;;;;;;;5080864;28;24974;-60
2021/10/14 11:24:42;;;;;;;2.50;2.40;;;;;;;;;;5081139;28;24449;-60
2021/10/14 11:27:13;;;;;;;2.20;2.00;;;;;;;;;;5082834;28;24780;-60
2021/10/14 11:29:39;;;;;;;1.90;1.80;;;;;;;;;;5083980;28;24967;-61
2021/10/14 11:32:06;;;;;;;2.30;1.87;;;;;;;;;;5078918;28;24387;-61
2021/10/14 11:34:32;;;;;;;1.80;1.70;;;;;;;;;;5077323;28;24418;-61
2021/10/14 11:36:59;;;;;;;2.80;2.50;;;;;;;;;;5081163;28;24413;-61
2021/10/14 11:39:25;;;;;;;2.10;2.00;;;;;;;;;;5081821;28;24928;-60
2021/10/14 11:41:55;;;;;;;1.90;1.80;;;;;;;;;;5080515;28;24549;-61
2021/10/14 11:44:20;;;;;;;1.55;1.45;;;;;;;;;;5079655;28;24556;-61
2021/10/14 11:46:45;;;;;;;1.30;1.30;;;;;;;;;;5080374;28;24571;-60
2021/10/14 11:49:13;;;;;;;1.60;1.40;;;;;;;;;;5078604;28;24979;-60
2021/10/14 11:51:38;;;;;;;1.50;1.40;;;;;;;;;;5080681;28;24402;-60
2021/10/14 11:54:06;;;;;;;1.53;1.43;;;;;;;;;;5078819;28;24473;-60
2021/10/14 11:56:32;;;;;;;1.60;1.50;;;;;;;;;;5083760;28;24516;-59
2021/10/14 11:58:58;;;;;;;1.50;1.40;;;;;;;;;;5082210;28;24494;-59
2021/10/14 12:01:24;;;;;;;1.53;1.43;;;;;;;;;;5080357;28;25020;-59
2021/10/14 12:03:50;;;;;;;1.10;1.10;;;;;;;;;;5071373;28;24533;-60
2021/10/14 12:06:16;;;;;;;1.80;1.70;;;;;;;;;;5078727;28;25248;-60
2021/10/14 12:08:42;;;;;;;1.10;1.10;;;;;;;;;;5081833;28;24541;-60
2021/10/14 12:11:18;;;;;;;1.40;1.30;;;;;;;;;;5082190;28;24529;-60
2021/10/14 12:13:43;;;;;;;1.30;1.20;;;;;;;;;;5067887;28;24513;-60
2021/10/14 12:16:12;;;;;;;1.50;1.40;;;;;;;;;;5081770;28;25101;-60
2021/10/14 12:18:37;;;;;;;2.60;1.73;;;;;;;;;;5078968;28;24601;-60
2021/10/14 12:21:05;;;;;;;1.10;1.10;;;;;;;;;;5058076;28;24562;-60
2021/10/14 12:23:30;;;;;;;1.40;1.08;;;;;;;;;;5059941;28;24528;-60
2021/10/14 12:26:12;;;;;;;1.27;0.80;;;;;;;;;;5060341;28;25064;-60
2021/10/14 12:28:41;;;;;;;1.20;1.10;;;;;;;;;;5063120;28;24397;-60
2021/10/14 12:31:07;;;;;;;1.10;1.00;;;;;;;;;;5081157;28;24426;-60
2021/10/14 12:33:32;;;;;;;1.00;1.00;;;;;;;;;;5083349;28;24791;-60
2021/10/14 12:36:01;;;;;;;1.63;1.30;;;;;;;;;;5077637;28;21237;-60
2021/10/14 12:38:52;;;;;;;1.15;1.05;;;;;;;;;;5074495;28;24468;-60
2021/10/14 12:41:17;;;;;;;1.30;1.20;;;;;;;;;;5053994;28;24421;-60
2021/10/14 12:43:53;;;;;;;1.27;1.17;;;;;;;;;;5063695;28;24393;-60
2021/10/14 12:47:05;;;;;;;2.10;1.50;;;;;;;;;;5063452;28;24486;-61
2021/10/14 12:51:41;;;;;;;2.22;2.03;;;;;;;;;;5080108;28;24976;-61
2021/10/14 12:54:11;;;;;;;2.50;2.35;;;;;;;;;;5078189;28;24437;-61
2021/10/14 12:56:41;;;;;;;2.60;2.40;;;;;;;;;;5079535;28;24456;-61
2021/10/14 12:59:07;;;;;;;2.90;2.70;;;;;;;;;;5070438;28;24984;-61
2021/10/14 13:01:36;;;;;;;3.90;3.60;;;;;;;;;;5062784;28;24395;-61
2021/10/14 13:04:01;;;;;;;5.22;4.80;;;;;;;;;;5061411;28;24419;-61
2021/10/14 13:06:27;;;;;;;5.10;4.70;;;;;;;;;;5057844;28;24414;-61
2021/10/14 13:09:00;;;;;;;4.50;4.20;;;;;;;;;;5063009;28;24506;-61
2021/10/14 13:11:31;;;;;;;6.63;6.13;;;;;;;;;;5096391;28;24569;-61
2021/10/14 13:13:56;;;;;;;8.32;7.53;;;;;;;;;;5101811;28;24421;-61
2021/10/14 13:16:21;;;;;;;6.80;6.20;;;;;;;;;;5104662;28;24394;-61
2021/10/14 13:18:46;;;;;;;7.60;7.00;;;;;;;;;;5092819;28;25025;-61
2021/10/14 13:21:12;;;;;;;7.47;6.88;;;;;;;;;;5074142;28;24432;-61
2021/10/14 13:23:37;;;;;;;8.13;7.47;;;;;;;;;;5061096;28;24395;-61
2021/10/14 13:26:02;;;;;;;9.00;8.30;;;;;;;;;;5074049;28;24741;-61
2021/10/14 13:28:29;;;;;;;9.50;8.80;;;;;;;;;;5087149;28;24501;-61
2021/10/14 13:30:56;;;;;;;8.93;8.23;;;;;;;;;;5085168;28;24433;-61
2021/10/14 13:33:22;;;;;;;8.07;7.47;;;;;;;;;;5083265;28;24791;-61
2021/10/14 13:35:47;;;;;;;8.53;7.83;;;;;;;;;;5081789;28;24537;-61
2021/10/14 13:38:13;;;;;;;8.50;7.80;;;;;;;;;;5086630;28;24452;-60
2021/10/14 13:40:40;;;;;;;8.30;7.70;;;;;;;;;;5086779;28;24379;-60
2021/10/14 13:43:10;;;;;;;9.52;8.80;;;;;;;;;;5083084;28;24426;-60
2021/10/14 13:45:35;;;;;;;12.00;11.00;;;;;;;;;;5076399;28;25258;-60
2021/10/14 13:48:00;;;;;;;9.90;9.10;;;;;;;;;;5071007;28;24556;-60
2021/10/14 13:50:25;;;;;;;9.02;8.32;;;;;;;;;;5066373;28;24873;-60
2021/10/14 13:52:50;;;;;;;8.77;8.07;;;;;;;;;;5075475;28;24425;-60
2021/10/14 13:55:15;;;;;;;10.70;9.80;;;;;;;;;;5074013;28;24537;-60
2021/10/14 13:57:43;;;;;;;9.00;8.30;;;;;;;;;;5081327;28;24387;-61
2021/10/14 14:00:09;;;;;;;12.50;11.50;;;;;;;;;;5060619;28;24395;-61
2021/10/14 14:02:34;;;;;;;10.18;9.40;;;;;;;;;;5066004;28;24390;-61
2021/10/14 14:04:59;;;;;;;11.10;10.20;;;;;;;;;;5064718;28;24406;-61
2021/10/14 14:07:24;;;;;;;10.95;10.05;;;;;;;;;;5065378;28;24406;-61
2021/10/14 14:09:50;;;;;;;9.98;9.18;;;;;;;;;;5082096;28;24410;-61
2021/10/14 14:12:15;;;;;;;9.88;9.18;;;;;;;;;;5080985;28;25458;-61
2021/10/14 14:14:40;;;;;;;12.43;11.43;;;;;;;;;;5084662;28;24748;-61
2021/10/14 14:17:05;;;;;;;12.63;11.63;;;;;;;;;;5073550;28;24410;-61
2021/10/14 14:19:32;;;;;;;10.20;9.40;;;;;;;;;;5070525;28;24410;-61
2021/10/14 14:21:58;;;;;;;8.70;8.00;;;;;;;;;;5063614;28;24976;-60
2021/10/14 14:24:23;;;;;;;11.07;10.20;;;;;;;;;;5065394;28;24417;-60
2021/10/14 14:26:48;;;;;;;10.70;9.90;;;;;;;;;;5074835;28;24433;-60
2021/10/14 14:29:13;;;;;;;9.63;8.82;;;;;;;;;;5075758;28;24981;-60
2021/10/14 14:31:38;;;;;;;10.50;9.70;;;;;;;;;;5060988;28;24422;-60
2021/10/14 14:34:03;;;;;;;11.00;10.10;;;;;;;;;;5055467;28;24450;-60
2021/10/14 14:36:30;;;;;;;9.50;8.70;;;;;;;;;;5052147;28;24453;-60